createdAt,value
2022-08-24T00:00:19.179Z,99.90
2022-08-24T00:02:46.982Z,99.90
2022-08-24T00:05:16.377Z,99.90
2022-08-24T00:07:44.303Z,99.90
2022-08-24T00:10:13.610Z,99.90
2022-08-24T00:12:41.941Z,99.90
2022-08-24T00:15:13.432Z,99.90
2022-08-24T00:17:41.570Z,99.90
2022-08-24T00:20:12.336Z,99.90
2022-08-24T00:22:42.144Z,99.90
2022-08-24T00:25:11.922Z,99.90
2022-08-24T00:27:41.066Z,99.90
2022-08-24T00:30:12.184Z,99.90
2022-08-24T00:32:39.986Z,99.90
2022-08-24T00:35:09.170Z,99.90
2022-08-24T00:37:37.492Z,99.90
2022-08-24T00:40:12.471Z,99.90
2022-08-24T00:42:41.237Z,99.90
2022-08-24T00:45:13.772Z,99.90
2022-08-24T00:47:57.622Z,99.90
2022-08-24T00:50:30.730Z,99.90
2022-08-24T00:53:02.480Z,99.90
2022-08-24T00:55:35.969Z,99.90
2022-08-24T00:58:08.743Z,99.90
2022-08-24T01:00:48.433Z,99.90
2022-08-24T01:03:17.480Z,99.90
2022-08-24T01:05:46.093Z,99.90
2022-08-24T01:08:15.047Z,99.90
2022-08-24T01:10:47.164Z,99.90
2022-08-24T01:13:15.827Z,99.90
2022-08-24T01:15:46.495Z,99.90
2022-08-24T01:18:36.774Z,99.90
2022-08-24T01:21:11.362Z,99.90
2022-08-24T01:23:42.551Z,99.90
2022-08-24T01:26:15.564Z,99.90
2022-08-24T01:28:46.864Z,99.90
2022-08-24T01:31:16.342Z,99.90
2022-08-24T01:33:44.142Z,99.90
2022-08-24T01:36:28.486Z,99.90
2022-08-24T01:39:01.385Z,99.90
2022-08-24T01:41:29.453Z,99.90
2022-08-24T01:43:58.132Z,99.90
2022-08-24T01:46:26.056Z,99.90
2022-08-24T01:48:54.134Z,99.90
2022-08-24T01:51:22.021Z,99.90
2022-08-24T01:53:49.873Z,99.90
2022-08-24T01:56:18.928Z,99.90
2022-08-24T01:58:47.814Z,99.90
2022-08-24T02:01:17.551Z,99.90
2022-08-24T02:03:46.270Z,99.90
2022-08-24T02:06:19.721Z,99.90
2022-08-24T02:08:47.630Z,99.90
2022-08-24T02:11:15.544Z,99.90
2022-08-24T02:13:44.656Z,99.90
2022-08-24T02:16:14.279Z,99.90
2022-08-24T02:18:42.206Z,99.90
2022-08-24T02:21:11.354Z,99.90
2022-08-24T02:23:41.236Z,99.90
2022-08-24T02:26:11.293Z,99.90
2022-08-24T02:28:40.360Z,99.90
2022-08-24T02:31:11.287Z,99.90
2022-08-24T02:33:40.151Z,99.90
2022-08-24T02:36:26.046Z,99.90
2022-08-24T02:38:54.331Z,99.90
2022-08-24T02:41:22.388Z,99.90
2022-08-24T02:43:50.172Z,99.90
2022-08-24T02:46:20.775Z,99.90
2022-08-24T02:48:52.236Z,99.90
2022-08-24T02:51:32.139Z,99.90
2022-08-24T02:54:12.336Z,99.90
2022-08-24T02:56:40.468Z,99.90
2022-08-24T02:59:08.306Z,99.90
2022-08-24T03:01:37.475Z,99.90
2022-08-24T03:04:05.843Z,99.90
2022-08-24T03:06:33.666Z,99.90
2022-08-24T03:09:01.478Z,99.90
2022-08-24T03:11:29.210Z,99.90
2022-08-24T03:13:58.903Z,99.90
2022-08-24T03:16:27.309Z,99.90
2022-08-24T03:18:56.512Z,99.90
2022-08-24T03:21:24.688Z,99.90
2022-08-24T03:23:52.462Z,99.90
2022-08-24T03:26:20.610Z,99.90
2022-08-24T03:28:49.511Z,99.90
2022-08-24T03:31:17.627Z,99.90
2022-08-24T03:33:45.382Z,99.90
2022-08-24T03:36:14.739Z,99.90
2022-08-24T03:38:42.760Z,99.90
2022-08-24T03:41:10.801Z,99.90
2022-08-24T03:43:49.514Z,99.90
2022-08-24T03:46:20.446Z,99.90
2022-08-24T03:48:49.406Z,99.90
2022-08-24T03:51:21.842Z,99.90
2022-08-24T03:53:49.925Z,99.90
2022-08-24T03:56:18.459Z,99.90
2022-08-24T03:58:46.739Z,99.90
2022-08-24T04:01:15.457Z,99.90
2022-08-24T04:03:45.326Z,99.90
2022-08-24T04:06:14.473Z,99.90
2022-08-24T04:08:43.874Z,99.90
2022-08-24T04:11:13.016Z,99.90
2022-08-24T04:13:40.897Z,99.90
2022-08-24T04:16:10.623Z,99.90
2022-08-24T04:18:38.460Z,99.90
2022-08-24T04:21:06.960Z,99.90
2022-08-24T04:23:47.031Z,99.90
2022-08-24T04:26:45.232Z,99.90
2022-08-24T04:29:09.453Z,99.90
2022-08-24T04:31:37.722Z,99.90
2022-08-24T04:34:06.852Z,99.90
2022-08-24T04:36:35.128Z,99.90
2022-08-24T04:39:03.361Z,99.90
2022-08-24T04:41:32.435Z,99.90
2022-08-24T04:44:02.921Z,99.90
2022-08-24T04:46:31.001Z,99.90
2022-08-24T04:48:59.002Z,99.90
2022-08-24T04:51:26.993Z,99.90
2022-08-24T04:53:58.398Z,99.90
2022-08-24T04:56:27.329Z,99.90
2022-08-24T04:58:56.981Z,99.90
2022-08-24T05:01:27.450Z,99.90
2022-08-24T05:03:56.368Z,99.90
2022-08-24T05:06:26.399Z,99.90
2022-08-24T05:08:54.878Z,99.90
2022-08-24T05:11:24.010Z,99.90
2022-08-24T05:13:53.367Z,99.90
2022-08-24T05:16:23.239Z,99.90
2022-08-24T05:18:51.376Z,99.90
2022-08-24T05:21:21.715Z,99.90
2022-08-24T05:23:49.963Z,99.90
2022-08-24T05:26:21.271Z,99.90
2022-08-24T05:28:49.208Z,99.90
2022-08-24T05:31:20.590Z,99.90
2022-08-24T05:33:50.288Z,99.90
2022-08-24T05:36:22.213Z,99.90
2022-08-24T05:38:51.607Z,99.90
2022-08-24T05:41:19.592Z,99.90
2022-08-24T05:43:47.748Z,99.90
2022-08-24T05:46:16.004Z,99.90
2022-08-24T05:48:53.058Z,99.90
2022-08-24T05:51:22.678Z,99.90
2022-08-24T05:53:51.364Z,99.90
2022-08-24T05:56:20.669Z,99.90
2022-08-24T05:58:49.517Z,99.90
2022-08-24T06:01:20.936Z,99.90
2022-08-24T06:03:50.136Z,99.90
2022-08-24T06:06:19.565Z,99.90
2022-08-24T06:08:51.253Z,99.90
2022-08-24T06:11:24.774Z,99.90
2022-08-24T06:14:00.568Z,99.90
2022-08-24T06:16:29.294Z,99.90
2022-08-24T06:18:57.879Z,99.90
2022-08-24T06:21:28.605Z,99.90
2022-08-24T06:23:58.113Z,99.90
2022-08-24T06:26:42.661Z,99.90
2022-08-24T06:29:10.839Z,99.90
2022-08-24T06:31:40.088Z,99.90
2022-08-24T06:34:10.681Z,99.90
2022-08-24T06:36:40.025Z,99.90
2022-08-24T06:39:10.402Z,99.90
2022-08-24T06:41:39.326Z,99.90
2022-08-24T06:44:08.619Z,99.90
2022-08-24T06:46:36.530Z,99.90
2022-08-24T06:49:05.618Z,99.90
2022-08-24T06:51:33.451Z,99.90
2022-08-24T06:54:01.648Z,99.90
2022-08-24T06:56:30.811Z,99.90
2022-08-24T06:58:58.625Z,99.90
2022-08-24T07:01:28.431Z,99.90
2022-08-24T07:03:56.760Z,99.90
2022-08-24T07:06:25.796Z,99.90
2022-08-24T07:08:54.185Z,99.90
2022-08-24T07:11:22.037Z,99.90
2022-08-24T07:13:51.281Z,99.90
2022-08-24T07:16:20.982Z,99.90
2022-08-24T07:18:50.299Z,99.90
2022-08-24T07:21:19.683Z,99.90
2022-08-24T07:23:48.138Z,99.90
2022-08-24T07:26:21.540Z,99.90
2022-08-24T07:28:53.839Z,99.90
2022-08-24T07:31:21.939Z,99.90
2022-08-24T07:33:49.882Z,99.90
2022-08-24T07:36:22.650Z,99.90
2022-08-24T07:38:52.710Z,99.90
2022-08-24T07:41:43.093Z,99.90
2022-08-24T07:44:10.764Z,99.90
2022-08-24T07:46:39.934Z,99.90
2022-08-24T07:49:31.582Z,99.90
2022-08-24T07:51:57.175Z,99.90
2022-08-24T07:54:25.754Z,99.90
2022-08-24T07:56:53.544Z,99.90
2022-08-24T07:59:22.778Z,99.90
2022-08-24T08:01:51.220Z,99.90
2022-08-24T08:04:22.072Z,99.90
2022-08-24T08:06:49.902Z,99.90
2022-08-24T08:09:18.077Z,99.90
2022-08-24T08:11:45.856Z,99.90
2022-08-24T08:14:14.786Z,99.90
2022-08-24T08:16:43.946Z,99.90
2022-08-24T08:19:12.219Z,99.90
2022-08-24T08:22:00.782Z,99.90
2022-08-24T08:24:28.774Z,99.90
2022-08-24T08:26:57.674Z,99.90
2022-08-24T08:29:26.125Z,99.90
2022-08-24T08:31:55.936Z,99.90
2022-08-24T08:34:23.756Z,99.90
2022-08-24T08:36:51.868Z,99.90
2022-08-24T08:39:22.144Z,99.90
2022-08-24T08:42:24.991Z,99.90
2022-08-24T08:45:20.110Z,99.90
2022-08-24T08:48:16.112Z,99.90
2022-08-24T08:51:09.926Z,99.90
2022-08-24T08:54:11.856Z,99.90
2022-08-24T08:56:46.355Z,99.90
2022-08-24T08:59:24.542Z,99.90
2022-08-24T09:02:07.571Z,99.90
2022-08-24T09:05:10.358Z,99.90
2022-08-24T09:07:46.362Z,99.90
2022-08-24T09:10:25.826Z,99.90
2022-08-24T09:13:12.867Z,99.90
2022-08-24T09:16:00.341Z,99.90
2022-08-24T09:18:41.421Z,99.90
2022-08-24T09:21:32.790Z,99.90
2022-08-24T09:24:22.680Z,99.90
2022-08-24T09:27:00.639Z,88.80
2022-08-24T09:29:44.920Z,73.50
2022-08-24T09:32:34.267Z,78.10
2022-08-24T09:35:06.090Z,87.90
2022-08-24T09:37:50.811Z,94.90
2022-08-24T09:40:39.396Z,99.90
2022-08-24T09:43:37.471Z,99.90
2022-08-24T09:46:28.366Z,99.90
2022-08-24T09:49:17.013Z,99.90
2022-08-24T09:52:18.758Z,99.90
2022-08-24T09:55:09.036Z,99.90
2022-08-24T09:58:04.240Z,99.90
2022-08-24T10:00:35.614Z,99.10
2022-08-24T10:03:16.825Z,99.00
2022-08-24T10:06:03.554Z,99.90
2022-08-24T10:08:45.226Z,99.90
2022-08-24T10:11:23.124Z,99.90
2022-08-24T10:14:00.145Z,99.90
2022-08-24T10:16:38.794Z,99.90
2022-08-24T10:19:24.923Z,99.90
2022-08-24T10:21:59.667Z,99.90
2022-08-24T10:24:53.705Z,99.90
2022-08-24T10:27:46.109Z,99.90
2022-08-24T10:30:53.405Z,98.30
2022-08-24T10:33:24.106Z,84.00
2022-08-24T10:36:17.045Z,70.40
2022-08-24T10:39:08.834Z,64.60
2022-08-24T10:42:11.523Z,62.60
2022-08-24T10:44:48.737Z,60.20
2022-08-24T10:47:23.308Z,65.00
2022-08-24T10:50:24.681Z,70.10
2022-08-24T10:53:23.890Z,72.60
2022-08-24T10:56:04.515Z,73.70
2022-08-24T10:58:45.091Z,78.30
2022-08-24T11:01:26.698Z,79.90
2022-08-24T11:03:59.697Z,83.50
2022-08-24T11:06:30.856Z,86.60
2022-08-24T11:09:02.542Z,86.70
2022-08-24T11:11:34.442Z,89.90
2022-08-24T11:14:04.950Z,91.70
2022-08-24T11:16:41.113Z,91.50
2022-08-24T11:19:13.228Z,92.90
2022-08-24T11:21:51.160Z,95.40
2022-08-24T11:24:42.522Z,98.20
2022-08-24T11:27:23.326Z,98.60
2022-08-24T11:30:03.721Z,99.90
2022-08-24T11:32:39.661Z,99.90
2022-08-24T11:35:16.108Z,99.90
2022-08-24T11:37:44.958Z,99.90
2022-08-24T11:40:13.708Z,99.90
2022-08-24T11:43:06.058Z,99.90
2022-08-24T11:45:40.216Z,99.90
2022-08-24T11:48:19.426Z,99.90
2022-08-24T11:50:52.777Z,99.90
2022-08-24T11:53:32.005Z,99.90
2022-08-24T11:56:05.967Z,99.90
2022-08-24T11:58:46.139Z,99.90
2022-08-24T12:01:21.424Z,99.90
2022-08-24T12:04:07.726Z,99.90
2022-08-24T12:06:45.925Z,99.90
2022-08-24T12:09:31.208Z,99.90
2022-08-24T12:12:09.680Z,99.90
2022-08-24T12:14:43.543Z,99.90
2022-08-24T12:17:18.075Z,99.90
2022-08-24T12:19:50.821Z,99.90
2022-08-24T12:22:20.944Z,99.90
2022-08-24T12:24:51.641Z,99.90
2022-08-24T12:27:23.210Z,99.90
2022-08-24T12:29:57.218Z,99.90
2022-08-24T12:32:29.070Z,99.90
2022-08-24T12:35:01.814Z,99.90
2022-08-24T12:37:34.902Z,99.90
2022-08-24T12:40:11.208Z,99.90
2022-08-24T12:42:51.791Z,99.90
2022-08-24T12:45:22.488Z,99.90
2022-08-24T12:47:58.123Z,99.90
2022-08-24T12:50:32.230Z,99.90
2022-08-24T12:53:30.306Z,99.90
2022-08-24T12:56:14.693Z,99.90
2022-08-24T12:59:00.362Z,99.90
2022-08-24T13:01:33.664Z,99.90
2022-08-24T13:04:10.159Z,99.90
2022-08-24T13:06:43.536Z,99.90
2022-08-24T13:09:18.100Z,99.90
2022-08-24T13:11:45.946Z,99.90
2022-08-24T13:14:20.526Z,99.90
2022-08-24T13:17:08.439Z,99.90
2022-08-24T13:19:39.671Z,99.90
2022-08-24T13:22:39.166Z,99.90
2022-08-24T13:25:50.624Z,99.90
2022-08-24T13:28:39.255Z,99.90
2022-08-24T13:31:26.169Z,99.90
2022-08-24T13:33:57.414Z,99.90
2022-08-24T13:36:45.007Z,99.90
2022-08-24T13:39:34.712Z,99.90
2022-08-24T13:42:21.643Z,99.90
2022-08-24T13:45:07.915Z,99.90
2022-08-24T13:47:50.686Z,99.90
2022-08-24T13:50:35.679Z,99.90
2022-08-24T13:53:36.472Z,99.90
2022-08-24T13:56:32.035Z,99.90
2022-08-24T13:59:09.656Z,99.90
2022-08-24T14:01:49.818Z,99.90
2022-08-24T14:04:48.157Z,99.90
2022-08-24T14:07:21.232Z,99.90
2022-08-24T14:10:02.682Z,99.90
2022-08-24T14:12:50.618Z,99.90
2022-08-24T14:15:27.031Z,99.90
2022-08-24T14:18:10.138Z,99.90
2022-08-24T14:20:59.117Z,99.90
2022-08-24T14:23:47.997Z,99.90
2022-08-24T14:26:53.251Z,99.90
2022-08-24T14:29:45.360Z,99.90
2022-08-24T14:32:47.728Z,99.90
2022-08-24T14:35:22.843Z,99.90
2022-08-24T14:38:01.311Z,99.90
2022-08-24T14:40:37.319Z,99.90
2022-08-24T14:43:25.061Z,99.90
2022-08-24T14:46:09.601Z,99.90
2022-08-24T14:48:47.228Z,99.90
2022-08-24T14:51:31.804Z,99.90
2022-08-24T14:54:09.979Z,99.90
2022-08-24T14:56:53.757Z,99.90
2022-08-24T14:59:33.767Z,99.90
2022-08-24T15:02:44.104Z,99.90
2022-08-24T15:05:23.692Z,99.90
2022-08-24T15:07:57.862Z,99.90
2022-08-24T15:10:29.937Z,99.90
2022-08-24T15:13:03.835Z,99.90
2022-08-24T15:15:39.685Z,99.90
2022-08-24T15:18:24.582Z,99.90
2022-08-24T15:21:06.307Z,99.90
2022-08-24T15:23:49.407Z,99.90
2022-08-24T15:26:24.511Z,99.90
2022-08-24T15:28:56.593Z,99.90
2022-08-24T15:31:27.511Z,99.90
2022-08-24T15:34:00.422Z,99.90
2022-08-24T15:36:30.118Z,99.90
2022-08-24T15:38:57.932Z,99.90
2022-08-24T15:41:30.455Z,99.90
2022-08-24T15:44:00.699Z,99.90
2022-08-24T15:46:33.411Z,99.90
2022-08-24T15:49:05.367Z,99.90
2022-08-24T15:51:44.666Z,99.90
2022-08-24T15:54:28.402Z,99.90
2022-08-24T15:56:59.306Z,99.90
2022-08-24T15:59:29.091Z,99.90
2022-08-24T16:02:16.617Z,99.90
2022-08-24T16:04:49.269Z,99.90
2022-08-24T16:07:24.205Z,99.90
2022-08-24T16:10:06.155Z,99.90
2022-08-24T16:12:33.967Z,99.90
2022-08-24T16:15:14.556Z,99.90
2022-08-24T16:17:49.297Z,99.90
2022-08-24T16:20:32.963Z,99.90
2022-08-24T16:23:03.626Z,99.90
2022-08-24T16:25:34.536Z,99.90
2022-08-24T16:28:09.816Z,99.90
2022-08-24T16:30:46.673Z,99.90
2022-08-24T16:33:43.647Z,99.90
2022-08-24T16:36:15.747Z,99.90
2022-08-24T16:38:47.716Z,99.90
2022-08-24T16:41:18.364Z,99.90
2022-08-24T16:43:46.820Z,99.90
2022-08-24T16:46:19.314Z,99.90
2022-08-24T16:48:47.068Z,99.90
2022-08-24T16:51:16.173Z,99.90
2022-08-24T16:53:43.909Z,99.90
2022-08-24T16:56:14.844Z,99.90
2022-08-24T16:58:44.661Z,99.90
2022-08-24T17:01:13.769Z,99.90
2022-08-24T17:03:42.320Z,99.90
2022-08-24T17:06:12.261Z,99.90
2022-08-24T17:08:41.964Z,99.90
2022-08-24T17:11:10.669Z,99.90
2022-08-24T17:13:49.358Z,99.90
2022-08-24T17:16:18.581Z,99.90
2022-08-24T17:18:46.567Z,99.90
2022-08-24T17:21:14.319Z,99.90
2022-08-24T17:23:44.151Z,99.90
2022-08-24T17:26:20.925Z,99.90
2022-08-24T17:28:51.671Z,99.90
2022-08-24T17:31:19.716Z,99.90
2022-08-24T17:33:47.531Z,99.90
2022-08-24T17:36:16.642Z,99.90
2022-08-24T17:38:54.481Z,99.90
2022-08-24T17:41:24.009Z,99.90
2022-08-24T17:43:52.332Z,99.90
2022-08-24T17:46:20.942Z,99.90
2022-08-24T17:48:49.113Z,99.90
2022-08-24T17:51:17.034Z,99.90
2022-08-24T17:53:46.205Z,99.90
2022-08-24T17:56:15.385Z,99.90
2022-08-24T17:59:01.308Z,99.90
2022-08-24T18:01:30.238Z,99.90
2022-08-24T18:03:58.291Z,99.90
2022-08-24T18:06:28.646Z,99.90
2022-08-24T18:09:00.539Z,99.90
2022-08-24T18:11:28.283Z,99.90
2022-08-24T18:13:56.089Z,99.90
2022-08-24T18:16:27.551Z,99.90
2022-08-24T18:18:56.187Z,99.90
2022-08-24T18:21:24.474Z,99.90
2022-08-24T18:23:52.990Z,99.90
2022-08-24T18:26:27.634Z,99.90
2022-08-24T18:28:58.184Z,99.90
2022-08-24T18:31:28.690Z,99.90
2022-08-24T18:33:56.518Z,99.90
2022-08-24T18:36:24.289Z,99.90
2022-08-24T18:38:53.205Z,99.90
2022-08-24T18:41:22.448Z,99.90
2022-08-24T18:43:50.288Z,99.90
2022-08-24T18:46:18.082Z,99.90
2022-08-24T18:48:46.016Z,99.90
2022-08-24T18:51:16.518Z,99.90
2022-08-24T18:53:44.292Z,99.90
2022-08-24T18:56:12.809Z,99.90
2022-08-24T18:58:42.024Z,99.90
2022-08-24T19:01:11.071Z,99.90
2022-08-24T19:03:39.108Z,99.90
2022-08-24T19:06:07.318Z,99.90
2022-08-24T19:08:35.177Z,99.90
2022-08-24T19:11:02.997Z,99.90
2022-08-24T19:13:31.029Z,99.90
2022-08-24T19:16:00.724Z,99.90
2022-08-24T19:18:28.582Z,99.90
2022-08-24T19:20:58.613Z,99.90
2022-08-24T19:23:29.334Z,99.90
2022-08-24T19:26:01.042Z,99.90
2022-08-24T19:28:29.631Z,99.90
2022-08-24T19:30:58.971Z,99.90
2022-08-24T19:33:31.969Z,99.90
2022-08-24T19:36:00.673Z,99.90
2022-08-24T19:38:29.369Z,99.90
2022-08-24T19:40:58.742Z,99.90
2022-08-24T19:43:27.926Z,99.90
2022-08-24T19:46:06.351Z,99.90
2022-08-24T19:48:38.069Z,99.90
2022-08-24T19:51:09.260Z,99.90
2022-08-24T19:53:38.988Z,99.90
2022-08-24T19:56:07.671Z,99.90
2022-08-24T19:58:40.904Z,99.90
2022-08-24T20:01:13.585Z,99.90
2022-08-24T20:03:42.752Z,99.90
2022-08-24T20:06:10.833Z,99.90
2022-08-24T20:08:39.335Z,99.90
2022-08-24T20:11:08.250Z,99.90
2022-08-24T20:13:36.293Z,99.90
2022-08-24T20:16:06.029Z,99.90
2022-08-24T20:18:39.609Z,99.90
2022-08-24T20:21:09.021Z,99.90
2022-08-24T20:23:37.249Z,99.90
2022-08-24T20:26:07.946Z,99.90
2022-08-24T20:28:40.661Z,99.90
2022-08-24T20:31:09.418Z,99.90
2022-08-24T20:33:37.207Z,99.90
2022-08-24T20:36:05.887Z,99.90
2022-08-24T20:38:35.652Z,99.90
2022-08-24T20:41:03.515Z,99.90
2022-08-24T20:43:31.361Z,99.90
2022-08-24T20:45:59.138Z,99.90
2022-08-24T20:48:30.414Z,99.90
2022-08-24T20:50:58.754Z,99.90
2022-08-24T20:53:27.313Z,99.90
2022-08-24T20:55:57.277Z,99.90
2022-08-24T20:58:25.206Z,99.90
2022-08-24T21:00:53.050Z,99.90
2022-08-24T21:03:21.435Z,99.90
2022-08-24T21:05:52.242Z,99.90
2022-08-24T21:08:20.614Z,99.90
2022-08-24T21:10:48.422Z,99.90
2022-08-24T21:13:17.542Z,99.90
2022-08-24T21:15:46.331Z,99.90
2022-08-24T21:18:14.206Z,99.90
2022-08-24T21:20:44.752Z,99.90
2022-08-24T21:23:30.295Z,99.90
2022-08-24T21:25:58.502Z,99.90
2022-08-24T21:28:27.748Z,99.90
2022-08-24T21:30:55.520Z,99.90
2022-08-24T21:33:49.471Z,99.90
2022-08-24T21:36:17.271Z,99.90
2022-08-24T21:38:45.430Z,99.90
2022-08-24T21:41:13.409Z,99.90
2022-08-24T21:43:42.477Z,99.90
2022-08-24T21:46:11.017Z,99.90
2022-08-24T21:48:39.950Z,99.90
2022-08-24T21:51:08.146Z,99.90
2022-08-24T21:53:35.999Z,99.90
2022-08-24T21:56:04.533Z,99.90
2022-08-24T21:58:32.535Z,99.90
2022-08-24T22:01:02.138Z,99.90
2022-08-24T22:03:31.665Z,99.90
2022-08-24T22:06:08.522Z,99.90
2022-08-24T22:08:36.700Z,99.90
2022-08-24T22:11:05.208Z,99.90
2022-08-24T22:13:34.096Z,99.90
2022-08-24T22:16:03.678Z,99.90
2022-08-24T22:18:32.209Z,99.90
2022-08-24T22:21:00.426Z,99.90
2022-08-24T22:23:28.206Z,99.90
2022-08-24T22:25:56.079Z,99.90
2022-08-24T22:28:24.351Z,99.90
2022-08-24T22:30:52.203Z,99.90
2022-08-24T22:33:21.951Z,99.90
2022-08-24T22:35:50.417Z,99.90
2022-08-24T22:38:18.416Z,99.90
2022-08-24T22:40:46.188Z,99.90
2022-08-24T22:43:14.341Z,99.90
2022-08-24T22:45:42.100Z,99.90
2022-08-24T22:48:09.868Z,99.90
2022-08-24T22:50:40.683Z,99.90
2022-08-24T22:53:09.620Z,99.90
2022-08-24T22:55:37.355Z,99.90
2022-08-24T22:58:05.504Z,99.90
2022-08-24T23:00:33.348Z,99.90
2022-08-24T23:03:01.173Z,99.90
2022-08-24T23:05:28.959Z,99.90
2022-08-24T23:07:58.073Z,99.90
2022-08-24T23:10:26.128Z,99.90
2022-08-24T23:12:54.166Z,99.90
2022-08-24T23:15:22.238Z,99.90
2022-08-24T23:17:50.009Z,99.90
2022-08-24T23:20:16.815Z,99.90
2022-08-24T23:22:48.231Z,99.90
2022-08-24T23:25:17.340Z,99.90
2022-08-24T23:27:49.369Z,99.90
2022-08-24T23:30:17.967Z,99.90
2022-08-24T23:32:46.272Z,99.90
2022-08-24T23:35:14.076Z,99.90
2022-08-24T23:37:42.201Z,99.90
2022-08-24T23:40:11.231Z,99.90
2022-08-24T23:42:40.345Z,99.90
2022-08-24T23:45:11.180Z,99.90
2022-08-24T23:47:40.352Z,99.90
2022-08-24T23:50:11.338Z,99.90
2022-08-24T23:52:39.962Z,99.90
2022-08-24T23:55:20.287Z,99.90
2022-08-24T23:57:50.631Z,99.90
